createdAt,value
2022-12-23T00:02:23.719Z,25.92
2022-12-23T00:04:50.861Z,27.45
2022-12-23T00:07:17.955Z,24.38
2022-12-23T00:09:44.973Z,26.13
2022-12-23T00:12:30.816Z,24.83
2022-12-23T00:15:07.268Z,24.02
2022-12-23T00:17:52.413Z,22.05
2022-12-23T00:20:19.998Z,23.13
2022-12-23T00:23:06.746Z,24.20
2022-12-23T00:25:40.786Z,26.58
2022-12-23T00:28:12.769Z,23.20
2022-12-23T00:30:55.612Z,21.60
2022-12-23T00:33:27.153Z,22.90
2022-12-23T00:35:55.419Z,24.58
2022-12-23T00:38:41.490Z,23.42
2022-12-23T00:41:37.708Z,23.75
2022-12-23T00:44:05.327Z,23.15
2022-12-23T00:46:32.772Z,25.05
2022-12-23T00:49:18.564Z,26.67
2022-12-23T00:51:45.755Z,28.30
2022-12-23T00:54:12.897Z,30.02
2022-12-23T00:56:40.030Z,30.02
2022-12-23T00:59:07.257Z,27.08
2022-12-23T01:01:53.533Z,28.48
2022-12-23T01:04:39.536Z,29.23
2022-12-23T01:07:07.515Z,29.00
2022-12-23T01:09:35.711Z,28.80
2022-12-23T01:12:03.437Z,25.48
2022-12-23T01:14:30.900Z,23.40
2022-12-23T01:16:58.089Z,25.40
2022-12-23T01:19:25.410Z,24.27
2022-12-23T01:21:52.462Z,24.25
2022-12-23T01:24:20.205Z,24.15
2022-12-23T01:26:47.296Z,25.85
2022-12-23T01:29:14.559Z,25.17
2022-12-23T01:31:41.703Z,23.95
2022-12-23T01:34:09.016Z,22.88
2022-12-23T01:36:36.389Z,22.88
2022-12-23T01:39:03.628Z,22.67
2022-12-23T01:41:52.342Z,24.38
2022-12-23T01:44:56.641Z,24.88
2022-12-23T01:47:45.256Z,23.70
2022-12-23T01:50:26.853Z,24.65
2022-12-23T01:53:16.908Z,21.80
2022-12-23T01:56:00.414Z,21.30
2022-12-23T01:58:47.041Z,22.92
2022-12-23T02:01:33.397Z,23.50
2022-12-23T02:04:07.278Z,23.83
2022-12-23T02:06:59.808Z,22.67
2022-12-23T02:09:33.814Z,22.52
2022-12-23T02:12:36.350Z,23.60
2022-12-23T02:15:48.919Z,23.08
2022-12-23T02:18:41.277Z,23.27
2022-12-23T02:21:57.812Z,22.75
2022-12-23T02:24:55.784Z,24.58
2022-12-23T02:28:16.198Z,24.65
2022-12-23T02:30:48.813Z,22.42
2022-12-23T02:33:24.999Z,22.02
2022-12-23T02:35:52.379Z,21.17
2022-12-23T02:38:52.236Z,21.15
2022-12-23T02:41:48.900Z,22.33
2022-12-23T02:44:36.159Z,22.52
2022-12-23T02:47:13.079Z,23.48
2022-12-23T02:49:45.635Z,23.67
2022-12-23T02:52:18.389Z,24.25
2022-12-23T02:54:53.129Z,24.55
2022-12-23T02:57:27.045Z,24.50
2022-12-23T02:59:57.649Z,23.58
2022-12-23T03:02:25.307Z,26.63
2022-12-23T03:04:52.606Z,24.17
2022-12-23T03:07:39.123Z,25.30
2022-12-23T03:10:37.737Z,24.67
2022-12-23T03:13:49.260Z,23.48
2022-12-23T03:16:39.802Z,24.25
2022-12-23T03:19:27.863Z,25.25
2022-12-23T03:22:03.083Z,23.27
2022-12-23T03:25:26.499Z,21.90
2022-12-23T03:28:15.760Z,19.83
2022-12-23T03:30:49.001Z,20.95
2022-12-23T03:33:30.690Z,20.92
2022-12-23T03:36:05.904Z,18.02
2022-12-23T03:38:36.486Z,17.85
2022-12-23T03:41:11.346Z,17.33
2022-12-23T03:43:50.869Z,16.42
2022-12-23T03:46:34.318Z,16.95
2022-12-23T03:49:07.624Z,15.32
2022-12-23T03:51:45.980Z,15.15
2022-12-23T03:54:21.241Z,17.02
2022-12-23T03:57:01.449Z,18.35
2022-12-23T03:59:34.290Z,18.73
2022-12-23T04:02:09.717Z,21.35
2022-12-23T04:05:12.754Z,20.42
2022-12-23T04:08:27.302Z,23.58
2022-12-23T04:10:54.552Z,24.17
2022-12-23T04:13:21.654Z,24.33
2022-12-23T04:15:48.840Z,26.27
2022-12-23T04:18:16.468Z,25.88
2022-12-23T04:20:43.595Z,25.15
2022-12-23T04:23:10.749Z,27.30
2022-12-23T04:25:37.888Z,25.88
2022-12-23T04:28:05.449Z,26.15
2022-12-23T04:30:34.584Z,23.90
2022-12-23T04:33:02.540Z,25.23
2022-12-23T04:35:30.863Z,24.08
2022-12-23T04:37:58.014Z,22.02
2022-12-23T04:40:25.110Z,21.88
2022-12-23T04:42:52.190Z,21.02
2022-12-23T04:45:19.430Z,21.35
2022-12-23T04:47:46.567Z,20.33
2022-12-23T04:50:17.208Z,20.38
2022-12-23T04:52:44.658Z,21.95
2022-12-23T04:55:12.442Z,19.88
2022-12-23T04:57:40.024Z,21.50
2022-12-23T05:00:08.254Z,21.85
2022-12-23T05:02:35.444Z,22.58
2022-12-23T05:05:02.700Z,23.40
2022-12-23T05:07:30.083Z,24.20
2022-12-23T05:10:01.617Z,23.05
2022-12-23T05:12:30.107Z,22.05
2022-12-23T05:14:57.492Z,24.52
2022-12-23T05:17:24.646Z,24.40
2022-12-23T05:19:51.737Z,22.58
2022-12-23T05:22:18.853Z,25.98
2022-12-23T05:24:46.571Z,24.35
2022-12-23T05:27:13.706Z,24.27
2022-12-23T05:29:40.764Z,22.48
2022-12-23T05:32:08.325Z,23.98
2022-12-23T05:34:35.812Z,24.45
2022-12-23T05:37:02.967Z,24.70
2022-12-23T05:39:30.064Z,25.58
2022-12-23T05:41:57.180Z,28.63
2022-12-23T05:44:24.576Z,21.98
2022-12-23T05:46:51.659Z,21.35
2022-12-23T05:49:18.849Z,22.73
2022-12-23T05:51:46.478Z,23.02
2022-12-23T05:54:13.737Z,22.65
2022-12-23T05:56:41.135Z,25.08
2022-12-23T05:59:08.199Z,28.05
2022-12-23T06:01:35.353Z,26.88
2022-12-23T06:04:03.019Z,29.08
2022-12-23T06:06:31.319Z,29.98
2022-12-23T06:09:00.106Z,29.95
2022-12-23T06:11:28.148Z,27.65
2022-12-23T06:13:55.272Z,29.48
2022-12-23T06:16:22.423Z,31.08
2022-12-23T06:18:49.553Z,31.90
2022-12-23T06:21:16.855Z,33.22
2022-12-23T06:23:44.850Z,33.10
2022-12-23T06:26:11.955Z,36.65
2022-12-23T06:28:39.106Z,34.90
2022-12-23T06:31:06.310Z,36.67
2022-12-23T06:33:33.873Z,31.67
2022-12-23T06:36:01.435Z,33.22
2022-12-23T06:38:28.894Z,32.38
2022-12-23T06:40:55.999Z,33.50
2022-12-23T06:43:23.160Z,36.20
2022-12-23T06:45:50.834Z,32.63
2022-12-23T06:48:18.657Z,32.00
2022-12-23T06:50:46.322Z,32.20
2022-12-23T06:53:13.625Z,31.45
2022-12-23T06:55:43.899Z,33.57
2022-12-23T06:58:11.411Z,32.63
2022-12-23T07:00:38.864Z,31.25
2022-12-23T07:03:06.459Z,29.90
2022-12-23T07:05:37.631Z,32.08
2022-12-23T07:08:05.688Z,30.70
2022-12-23T07:10:34.487Z,30.85
2022-12-23T07:13:02.077Z,30.58
2022-12-23T07:15:29.337Z,28.77
2022-12-23T07:17:56.629Z,28.92
2022-12-23T07:20:23.870Z,29.08
2022-12-23T07:22:53.941Z,30.45
2022-12-23T07:25:21.846Z,27.92
2022-12-23T07:27:52.535Z,30.08
2022-12-23T07:30:19.706Z,30.65
2022-12-23T07:32:50.945Z,26.58
2022-12-23T07:35:19.276Z,27.60
2022-12-23T07:37:50.582Z,25.10
2022-12-23T07:40:18.172Z,30.23
2022-12-23T07:42:53.705Z,26.98
2022-12-23T07:45:21.183Z,28.58
2022-12-23T07:47:51.744Z,25.85
2022-12-23T07:50:19.213Z,31.67
2022-12-23T07:52:46.685Z,29.55
2022-12-23T07:55:13.988Z,28.60
2022-12-23T07:57:41.273Z,27.90
2022-12-23T08:00:14.177Z,29.75
2022-12-23T08:02:42.106Z,29.25
2022-12-23T08:05:10.657Z,29.58
2022-12-23T08:07:38.141Z,30.95
2022-12-23T08:10:06.488Z,32.83
2022-12-23T08:12:33.979Z,34.40
2022-12-23T08:15:01.429Z,33.05
2022-12-23T08:17:31.856Z,32.65
2022-12-23T08:19:59.016Z,32.60
2022-12-23T08:22:26.125Z,36.38
2022-12-23T08:24:53.585Z,38.17
2022-12-23T08:27:21.101Z,40.25
2022-12-23T08:29:48.270Z,39.15
2022-12-23T08:32:15.384Z,43.83
2022-12-23T08:34:42.528Z,42.15
2022-12-23T08:37:09.824Z,43.97
2022-12-23T08:39:36.936Z,45.42
2022-12-23T08:42:04.424Z,48.95
2022-12-23T08:44:32.625Z,49.13
2022-12-23T08:46:59.989Z,50.38
2022-12-23T08:49:27.161Z,50.90
2022-12-23T08:51:54.277Z,50.65
2022-12-23T08:54:23.765Z,51.40
2022-12-23T08:56:50.952Z,51.95
2022-12-23T08:59:19.814Z,52.47
2022-12-23T09:01:48.385Z,52.60
2022-12-23T09:04:15.759Z,52.42
2022-12-23T09:06:45.690Z,53.50
2022-12-23T09:09:15.490Z,53.08
2022-12-23T09:11:42.922Z,51.38
2022-12-23T09:14:11.636Z,49.88
2022-12-23T09:16:39.643Z,48.20
2022-12-23T09:19:07.928Z,51.30
2022-12-23T09:21:35.722Z,52.60
2022-12-23T09:24:03.327Z,44.55
2022-12-23T09:26:31.739Z,43.80
2022-12-23T09:29:00.100Z,43.47
2022-12-23T09:31:32.615Z,44.92
2022-12-23T09:34:03.508Z,43.78
2022-12-23T09:36:30.676Z,42.65
2022-12-23T09:38:58.678Z,41.33
2022-12-23T09:41:48.529Z,41.50
2022-12-23T09:45:00.103Z,38.53
2022-12-23T09:47:31.464Z,35.50
2022-12-23T09:50:04.198Z,34.15
2022-12-23T09:53:08.205Z,35.83
2022-12-23T09:56:16.538Z,34.15
2022-12-23T09:59:05.983Z,33.90
2022-12-23T10:02:05.501Z,33.15
2022-12-23T10:04:49.869Z,32.53
2022-12-23T10:07:33.841Z,31.30
2022-12-23T10:10:27.016Z,30.38
2022-12-23T10:12:55.739Z,31.50
2022-12-23T10:15:43.279Z,27.20
2022-12-23T10:21:31.530Z,26.92
2022-12-23T10:24:05.932Z,26.58
2022-12-23T10:26:41.579Z,27.33
2022-12-23T10:29:19.684Z,25.65
2022-12-23T10:32:11.988Z,29.10
2022-12-23T10:35:18.672Z,28.63
2022-12-23T10:38:07.576Z,23.08
2022-12-23T10:41:08.808Z,21.88
2022-12-23T10:44:11.814Z,21.52
2022-12-23T10:47:19.593Z,20.48
2022-12-23T10:50:01.848Z,21.00
2022-12-23T10:52:34.561Z,19.17
2022-12-23T10:55:02.055Z,19.67
2022-12-23T10:57:30.138Z,20.40
2022-12-23T10:59:58.158Z,19.70
2022-12-23T11:03:23.430Z,23.60
2022-12-23T11:05:53.466Z,18.50
2022-12-23T11:08:22.654Z,19.08
2022-12-23T11:10:50.261Z,19.30
2022-12-23T11:13:39.698Z,18.98
2022-12-23T11:16:29.087Z,18.95
2022-12-23T11:19:13.828Z,19.17
2022-12-23T11:21:58.518Z,18.02
2022-12-23T11:24:28.375Z,17.30
2022-12-23T11:27:11.776Z,18.20
2022-12-23T11:29:49.491Z,16.10
2022-12-23T11:32:25.745Z,17.05
2022-12-23T11:34:53.957Z,16.80
2022-12-23T11:37:44.419Z,15.63
2022-12-23T11:40:34.327Z,15.15
2022-12-23T11:43:16.303Z,17.02
2022-12-23T11:45:43.876Z,15.38
2022-12-23T11:48:29.746Z,15.70
2022-12-23T11:51:02.779Z,16.65
2022-12-23T11:53:31.416Z,15.63
2022-12-23T11:56:12.553Z,15.65
2022-12-23T11:58:53.966Z,17.10
2022-12-23T12:01:25.156Z,15.48
2022-12-23T12:04:03.355Z,17.30
2022-12-23T12:06:32.307Z,15.20
2022-12-23T12:09:03.858Z,16.88
2022-12-23T12:11:46.479Z,16.92
2022-12-23T12:14:41.032Z,16.55
2022-12-23T12:17:17.283Z,16.42
2022-12-23T12:20:02.540Z,17.40
2022-12-23T12:22:56.465Z,16.98
2022-12-23T12:25:55.663Z,18.05
2022-12-23T12:28:49.989Z,20.42
2022-12-23T12:31:47.304Z,19.92
2022-12-23T12:34:53.989Z,17.63
2022-12-23T12:37:43.454Z,19.45
2022-12-23T12:40:46.461Z,19.40
2022-12-23T12:43:39.601Z,19.40
2022-12-23T12:46:25.859Z,18.75
2022-12-23T12:49:31.274Z,20.15
2022-12-23T12:52:15.243Z,19.85
2022-12-23T12:54:49.061Z,17.83
2022-12-23T12:57:20.300Z,19.05
2022-12-23T12:59:53.721Z,19.50
2022-12-23T13:02:23.414Z,19.80
2022-12-23T13:05:11.171Z,15.98
2022-12-23T13:07:44.908Z,17.75
2022-12-23T13:10:12.490Z,17.65
2022-12-23T13:13:08.179Z,16.85
2022-12-23T13:16:04.929Z,17.83
2022-12-23T13:18:38.502Z,16.58
2022-12-23T13:21:34.486Z,17.08
2022-12-23T13:24:38.380Z,15.50
2022-12-23T13:27:39.518Z,13.93
2022-12-23T13:30:23.718Z,15.07
2022-12-23T13:33:26.178Z,15.13
2022-12-23T13:36:54.156Z,14.63
2022-12-23T13:39:40.174Z,12.27
2022-12-23T13:42:19.180Z,12.75
2022-12-23T13:44:47.387Z,14.40
2022-12-23T13:48:04.301Z,14.13
2022-12-23T13:50:53.156Z,12.93
2022-12-23T13:54:03.850Z,14.40
2022-12-23T13:57:14.643Z,13.68
2022-12-23T13:59:58.480Z,14.05
2022-12-23T14:02:48.809Z,14.57
2022-12-23T14:05:41.127Z,14.88
2022-12-23T14:08:27.057Z,12.85
2022-12-23T14:11:09.154Z,15.65
2022-12-23T14:13:51.124Z,16.10
2022-12-23T14:17:03.778Z,12.07
2022-12-23T14:20:36.006Z,14.80
2022-12-23T14:23:33.787Z,14.10
2022-12-23T14:26:34.204Z,11.43
2022-12-23T14:29:07.207Z,9.65
2022-12-23T14:31:53.895Z,10.43
2022-12-23T14:34:22.840Z,11.40
2022-12-23T14:37:16.411Z,10.35
2022-12-23T14:39:44.131Z,12.68
2022-12-23T14:42:16.409Z,10.57
2022-12-23T14:44:49.747Z,11.00
2022-12-23T14:47:31.718Z,10.90
2022-12-23T14:50:30.839Z,10.73
2022-12-23T14:53:05.096Z,9.32
2022-12-23T14:55:33.001Z,8.45
2022-12-23T14:58:13.229Z,9.55
2022-12-23T15:00:52.765Z,8.70
2022-12-23T15:03:20.712Z,10.75
2022-12-23T15:05:48.550Z,9.48
2022-12-23T15:08:40.165Z,8.75
2022-12-23T15:11:15.717Z,8.73
2022-12-23T15:13:43.207Z,8.60
2022-12-23T15:16:18.843Z,10.68
2022-12-23T15:18:55.613Z,8.88
2022-12-23T15:21:36.098Z,9.60
2022-12-23T15:24:03.293Z,9.65
2022-12-23T15:26:32.824Z,10.57
2022-12-23T15:29:00.904Z,10.30
2022-12-23T15:31:35.832Z,11.23
2022-12-23T15:34:15.056Z,11.43
2022-12-23T15:36:45.751Z,13.18
2022-12-23T15:39:41.696Z,12.68
2022-12-23T15:42:31.811Z,15.07
2022-12-23T15:44:58.978Z,12.43
2022-12-23T15:47:36.256Z,15.13
2022-12-23T15:50:12.411Z,14.52
2022-12-23T15:52:43.077Z,16.33
2022-12-23T15:55:28.933Z,19.27
2022-12-23T15:57:56.889Z,19.05
2022-12-23T16:01:00.235Z,20.13
2022-12-23T16:03:39.402Z,19.45
2022-12-23T16:06:11.054Z,17.00
2022-12-23T16:08:38.628Z,17.00
2022-12-23T16:11:20.919Z,20.25
2022-12-23T16:14:21.118Z,19.55
2022-12-23T16:16:50.869Z,20.30
2022-12-23T16:19:41.269Z,20.00
2022-12-23T16:22:38.123Z,21.10
2022-12-23T16:25:24.796Z,21.33
2022-12-23T16:28:07.776Z,20.43
2022-12-23T16:30:41.959Z,21.15
2022-12-23T16:33:33.870Z,22.00
2022-12-23T16:36:25.450Z,20.63
2022-12-23T16:39:20.280Z,20.40
2022-12-23T16:41:48.569Z,17.45
2022-12-23T16:44:16.714Z,16.15
2022-12-23T16:46:48.824Z,15.27
2022-12-23T16:49:20.652Z,13.15
2022-12-23T16:51:48.544Z,11.32
2022-12-23T16:54:20.518Z,11.50
2022-12-23T16:56:47.701Z,12.35
2022-12-23T16:59:15.116Z,12.70
2022-12-23T17:01:46.344Z,10.43
2022-12-23T17:04:14.242Z,9.70
2022-12-23T17:06:41.880Z,11.07
2022-12-23T17:09:11.533Z,11.60
2022-12-23T17:11:46.832Z,10.05
2022-12-23T17:14:24.234Z,12.43
2022-12-23T17:16:52.712Z,11.00
2022-12-23T17:19:27.649Z,11.68
2022-12-23T17:22:02.238Z,9.98
2022-12-23T17:24:29.558Z,13.93
2022-12-23T17:26:57.778Z,13.10
2022-12-23T17:29:25.302Z,12.57
2022-12-23T17:31:52.902Z,13.02
2022-12-23T17:34:24.241Z,12.50
2022-12-23T17:36:51.808Z,10.15
2022-12-23T17:39:21.667Z,12.38
2022-12-23T17:41:49.565Z,11.95
2022-12-23T17:44:18.377Z,11.77
2022-12-23T17:46:49.481Z,14.18
2022-12-23T17:49:16.672Z,11.95
2022-12-23T17:51:43.911Z,13.70
2022-12-23T17:54:24.046Z,14.80
2022-12-23T17:56:57.226Z,14.60
2022-12-23T17:59:24.322Z,16.10
2022-12-23T18:01:51.995Z,16.88
2022-12-23T18:04:19.978Z,19.25
2022-12-23T18:06:47.177Z,17.80
2022-12-23T18:09:14.294Z,18.70
2022-12-23T18:11:46.605Z,16.27
2022-12-23T18:14:26.771Z,17.48
2022-12-23T18:16:53.972Z,17.70
2022-12-23T18:19:21.832Z,14.40
2022-12-23T18:21:50.519Z,14.35
2022-12-23T18:24:18.341Z,14.23
2022-12-23T18:26:46.258Z,14.05
2022-12-23T18:29:13.658Z,17.48
2022-12-23T18:31:50.911Z,15.55
2022-12-23T18:34:18.626Z,12.95
2022-12-23T18:36:46.297Z,16.95
2022-12-23T18:39:13.900Z,15.82
2022-12-23T18:41:40.997Z,14.32
2022-12-23T18:44:20.709Z,13.38
2022-12-23T18:46:49.339Z,15.32
2022-12-23T18:49:16.705Z,14.65
2022-12-23T18:51:43.956Z,14.23
2022-12-23T18:54:17.242Z,15.73
2022-12-23T18:56:44.468Z,15.23
2022-12-23T18:59:22.528Z,14.25
2022-12-23T19:01:56.212Z,16.50
2022-12-23T19:04:23.398Z,13.23
2022-12-23T19:06:50.492Z,18.27
2022-12-23T19:09:20.988Z,15.98
2022-12-23T19:11:51.224Z,14.60
2022-12-23T19:14:18.545Z,15.23
2022-12-23T19:16:51.150Z,13.60
2022-12-23T19:19:18.729Z,15.38
2022-12-23T19:21:45.924Z,13.52
2022-12-23T19:24:14.039Z,13.93
2022-12-23T19:26:41.246Z,13.27
2022-12-23T19:29:09.237Z,14.52
2022-12-23T19:31:36.384Z,11.95
2022-12-23T19:34:03.620Z,11.65
2022-12-23T19:36:31.265Z,13.38
2022-12-23T19:38:58.633Z,12.15
2022-12-23T19:41:26.236Z,11.55
2022-12-23T19:43:53.518Z,14.02
2022-12-23T19:46:20.985Z,14.10
2022-12-23T19:48:54.935Z,14.20
2022-12-23T19:51:22.211Z,11.35
2022-12-23T19:53:51.599Z,12.23
2022-12-23T19:56:22.823Z,11.00
2022-12-23T19:58:50.809Z,11.68
2022-12-23T20:01:25.088Z,13.05
2022-12-23T20:03:55.235Z,10.93
2022-12-23T20:06:33.027Z,11.07
2022-12-23T20:09:04.236Z,12.73
2022-12-23T20:11:44.086Z,11.73
2022-12-23T20:14:14.128Z,12.32
2022-12-23T20:16:42.244Z,13.48
2022-12-23T20:19:10.208Z,14.63
2022-12-23T20:21:37.685Z,14.00
2022-12-23T20:24:06.152Z,16.08
2022-12-23T20:26:33.812Z,17.98
2022-12-23T20:29:00.954Z,17.58
2022-12-23T20:31:31.370Z,18.58
2022-12-23T20:34:00.489Z,12.48
2022-12-23T20:36:33.591Z,15.00
2022-12-23T20:39:03.318Z,14.00
2022-12-23T20:41:31.686Z,13.13
2022-12-23T20:46:47.038Z,12.02
2022-12-23T20:49:14.224Z,13.13
2022-12-23T20:51:41.319Z,10.95
2022-12-23T20:54:09.288Z,11.68
2022-12-23T20:56:36.753Z,13.60
2022-12-23T20:59:04.109Z,13.10
2022-12-23T21:01:36.831Z,11.85
2022-12-23T21:04:08.554Z,11.27
2022-12-23T21:06:36.642Z,10.02
2022-12-23T21:09:07.443Z,10.40
2022-12-23T21:11:38.424Z,12.07
2022-12-23T21:14:07.300Z,11.85
2022-12-23T21:16:37.474Z,9.00
2022-12-23T21:19:08.190Z,10.00
2022-12-23T21:21:35.894Z,8.90
2022-12-23T21:24:04.712Z,8.75
2022-12-23T21:26:34.558Z,8.10
2022-12-23T21:29:04.370Z,8.32
2022-12-23T21:31:34.648Z,7.88
2022-12-23T21:34:02.581Z,6.57
2022-12-23T21:36:33.963Z,8.60
2022-12-23T21:39:01.631Z,7.65
2022-12-23T21:41:34.118Z,6.50
2022-12-23T21:44:02.287Z,8.45
2022-12-23T21:46:30.235Z,6.75
2022-12-23T21:48:58.788Z,8.35
2022-12-23T21:51:39.485Z,7.82
2022-12-23T21:54:09.931Z,7.45
2022-12-23T21:56:37.632Z,6.97
2022-12-23T21:59:13.723Z,7.05
2022-12-23T22:01:42.578Z,6.87
2022-12-23T22:04:10.010Z,7.18
2022-12-23T22:06:43.403Z,7.53
2022-12-23T22:09:15.017Z,6.70
2022-12-23T22:11:42.988Z,8.65
2022-12-23T22:14:13.563Z,8.32
2022-12-23T22:16:41.382Z,6.32
2022-12-23T22:19:11.997Z,6.53
2022-12-23T22:21:39.864Z,7.68
2022-12-23T22:24:07.817Z,7.28
2022-12-23T22:26:36.310Z,7.53
2022-12-23T22:29:06.423Z,7.13
2022-12-23T22:31:50.238Z,7.00
2022-12-23T22:34:21.073Z,8.45
2022-12-23T22:36:49.147Z,9.23
2022-12-23T22:39:21.157Z,9.88
2022-12-23T22:41:50.689Z,9.55
2022-12-23T22:44:19.068Z,9.15
2022-12-23T22:46:46.386Z,8.88
2022-12-23T22:49:15.180Z,10.65
2022-12-23T22:51:43.488Z,11.93
2022-12-23T22:54:10.675Z,7.97
2022-12-23T22:56:38.022Z,8.48
2022-12-23T22:59:05.984Z,8.77
2022-12-23T23:01:36.162Z,7.93
2022-12-23T23:04:04.812Z,9.95
2022-12-23T23:06:38.865Z,8.43
2022-12-23T23:09:17.222Z,9.07
2022-12-23T23:11:45.010Z,7.88
2022-12-23T23:14:12.853Z,9.95
2022-12-23T23:16:40.366Z,8.35
2022-12-23T23:19:09.153Z,8.07
2022-12-23T23:21:37.823Z,9.77
2022-12-23T23:24:05.936Z,7.45
2022-12-23T23:26:33.182Z,9.23
2022-12-23T23:29:00.246Z,8.32
2022-12-23T23:31:44.030Z,7.53
2022-12-23T23:34:13.084Z,10.00
2022-12-23T23:36:40.660Z,8.32
2022-12-23T23:39:09.011Z,8.43
2022-12-23T23:41:36.111Z,8.27
2022-12-23T23:44:03.563Z,8.57
2022-12-23T23:46:31.826Z,9.60
2022-12-23T23:48:59.417Z,9.85
2022-12-23T23:51:27.694Z,9.63
2022-12-23T23:53:54.907Z,9.98
2022-12-23T23:56:25.680Z,11.20
2022-12-23T23:58:54.154Z,10.50
